KDFW/DFW METAR and TAF weather

Enter ICAO airport designator
Station Type Date Time Source
KDFW METAR 2017/06/25 23:53 UTC NOAA

KDFW 252353Z 08007KT 10SM FEW050 SCT300 30/15 A3010 RMK AO2 SLP184 T03000150 10311 20289 56015


Station Type Date Time Source
KDFW Decoded METAR 2017/06/25 23:53 UTC NOAA

DALLAS/FT. WORTH INTERNATIONAL AIRPORT , TX, United States (KDFW) 32-54N 097-02W 174M
Jun 25, 2017 - 07:53 PM EDT / 2017.06.25 2353 UTC
Wind: from the E (080 degrees) at 8 MPH (7 KT):0
Visibility: 10 mile(s):0
Sky conditions: partly cloudy
Temperature: 86.0 F (30.0 C)
Dew Point: 59.0 F (15.0 C)
Relative Humidity: 40%
Pressure (altimeter): 30.1 in. Hg (1019 hPa)
Pressure tendency: 0.04 inches (1.5 hPa) lower than three hours ago
ob: KDFW 252353Z 08007KT 10SM FEW050 SCT300 30/15 A3010 RMK AO2 SLP184 T03000150 10311 20289 56015
cycle: 0

Station Type Date Time Source
KDFW TAF 2017/06/25 21:57 UTC NOAA

TAF
AMD KDFW 252055Z 2521/2624 09010KT P6SM SCT050 SCT300
FM260300 12005KT P6SM BKN045
FM261000 12004KT P6SM SCT022 BKN035
TEMPO 2612/2616 BKN022
FM261600 13007KT P6SM SCT025 BKN035


Example: see airport list